createdAt,value
2022-11-02T00:00:40.870Z,100
2022-11-02T00:01:40.879Z,100
2022-11-02T00:02:40.862Z,100
2022-11-02T00:03:40.782Z,100
2022-11-02T00:04:40.936Z,100
2022-11-02T00:05:40.798Z,100
2022-11-02T00:06:40.820Z,100
2022-11-02T00:07:40.762Z,100
2022-11-02T00:08:40.820Z,100
2022-11-02T00:09:40.839Z,100
2022-11-02T00:10:40.760Z,100
2022-11-02T00:11:40.841Z,100
2022-11-02T00:12:40.811Z,100
2022-11-02T00:13:40.859Z,100
2022-11-02T00:14:40.875Z,100
2022-11-02T00:15:40.764Z,100
2022-11-02T00:16:40.783Z,100
2022-11-02T00:17:40.763Z,100
2022-11-02T00:18:40.936Z,100
2022-11-02T00:19:40.814Z,100
2022-11-02T00:20:40.902Z,100
2022-11-02T00:21:40.783Z,100
2022-11-02T00:22:40.912Z,100
2022-11-02T00:23:40.774Z,100
2022-11-02T00:24:40.829Z,100
2022-11-02T00:25:40.813Z,100
2022-11-02T00:26:40.773Z,100
2022-11-02T00:27:40.827Z,100
2022-11-02T00:28:40.853Z,100
2022-11-02T00:29:40.858Z,100
2022-11-02T00:30:40.845Z,100
2022-11-02T00:31:40.859Z,100
2022-11-02T00:32:40.773Z,100
2022-11-02T00:33:40.888Z,100
2022-11-02T00:34:40.777Z,100
2022-11-02T00:35:40.858Z,100
2022-11-02T00:36:40.874Z,100
2022-11-02T00:37:40.812Z,100
2022-11-02T00:38:40.835Z,100
2022-11-02T00:39:40.812Z,100
2022-11-02T00:40:40.784Z,100
2022-11-02T00:41:40.785Z,100
2022-11-02T00:42:40.835Z,100
2022-11-02T00:43:40.938Z,100
2022-11-02T00:44:40.953Z,100
2022-11-02T00:45:40.766Z,100
2022-11-02T00:46:40.874Z,100
2022-11-02T00:47:40.826Z,100
2022-11-02T00:48:40.880Z,100
2022-11-02T00:49:40.784Z,100
2022-11-02T00:50:40.779Z,100
2022-11-02T00:51:40.789Z,100
2022-11-02T00:52:40.737Z,100
2022-11-02T00:53:40.779Z,100
2022-11-02T00:54:40.760Z,100
2022-11-02T00:55:40.921Z,100
2022-11-02T00:56:40.788Z,100
2022-11-02T00:57:40.834Z,100
2022-11-02T00:58:40.818Z,100
2022-11-02T00:59:40.848Z,100
2022-11-02T01:00:40.850Z,100
2022-11-02T01:01:40.961Z,100
2022-11-02T01:02:41.024Z,100
2022-11-02T01:03:40.774Z,100
2022-11-02T01:04:40.846Z,100
2022-11-02T01:05:40.778Z,100
2022-11-02T01:06:40.825Z,100
2022-11-02T01:07:40.806Z,100
2022-11-02T01:08:40.768Z,100
2022-11-02T01:09:40.931Z,100
2022-11-02T01:10:44.033Z,100
2022-11-02T01:11:40.826Z,100
2022-11-02T01:12:40.722Z,100
2022-11-02T01:13:40.828Z,100
2022-11-02T01:14:40.812Z,100
2022-11-02T01:15:40.790Z,100
2022-11-02T01:16:40.926Z,100
2022-11-02T01:17:40.783Z,100
2022-11-02T01:18:40.761Z,100
2022-11-02T01:19:40.832Z,100
2022-11-02T01:20:40.853Z,100
2022-11-02T01:21:40.794Z,100
2022-11-02T01:22:40.887Z,100
2022-11-02T01:23:40.898Z,100
2022-11-02T01:24:40.800Z,100
2022-11-02T01:25:40.802Z,100
2022-11-02T01:26:40.825Z,100
2022-11-02T01:27:40.779Z,100
2022-11-02T01:28:40.837Z,100
2022-11-02T01:29:40.762Z,100
2022-11-02T01:30:40.813Z,100
2022-11-02T01:31:40.776Z,100
2022-11-02T01:32:40.864Z,100
2022-11-02T01:33:40.796Z,100
2022-11-02T01:34:40.820Z,100
2022-11-02T01:35:40.725Z,100
2022-11-02T01:36:40.773Z,100
2022-11-02T01:37:40.782Z,100
2022-11-02T01:38:40.896Z,100
2022-11-02T01:39:40.764Z,100
2022-11-02T01:40:40.802Z,100
2022-11-02T01:41:40.818Z,100
2022-11-02T01:42:40.905Z,100
2022-11-02T01:43:40.765Z,100
2022-11-02T01:44:40.788Z,100
2022-11-02T01:45:40.932Z,100
2022-11-02T01:46:40.821Z,100
2022-11-02T01:47:40.819Z,100
2022-11-02T01:48:40.757Z,100
2022-11-02T01:49:40.778Z,100
2022-11-02T01:50:40.857Z,100
2022-11-02T01:51:40.784Z,100
2022-11-02T01:52:40.835Z,100
2022-11-02T01:53:40.811Z,100
2022-11-02T01:54:40.810Z,100
2022-11-02T01:55:40.773Z,100
2022-11-02T01:56:40.811Z,100
2022-11-02T01:57:40.783Z,100
2022-11-02T01:58:40.746Z,100
2022-11-02T01:59:40.771Z,100
2022-11-02T02:00:40.769Z,100
2022-11-02T02:01:40.938Z,100
2022-11-02T02:02:40.955Z,100
2022-11-02T02:03:40.766Z,100
2022-11-02T02:04:40.831Z,100
2022-11-02T02:05:40.784Z,100
2022-11-02T02:06:40.778Z,100
2022-11-02T02:07:40.803Z,100
2022-11-02T02:08:40.803Z,100
2022-11-02T02:09:40.842Z,100
2022-11-02T02:10:40.860Z,100
2022-11-02T02:11:40.810Z,100
2022-11-02T02:12:40.781Z,100
2022-11-02T02:13:40.773Z,100
2022-11-02T02:14:40.773Z,100
2022-11-02T02:15:40.822Z,100
2022-11-02T02:16:40.831Z,100
2022-11-02T02:17:40.817Z,100
2022-11-02T02:18:40.866Z,100
2022-11-02T02:19:40.731Z,100
2022-11-02T02:20:40.782Z,100
2022-11-02T02:21:40.772Z,100
2022-11-02T02:22:40.765Z,100
2022-11-02T02:23:40.736Z,100
2022-11-02T02:24:40.778Z,100
2022-11-02T02:25:40.831Z,100
2022-11-02T02:26:40.778Z,100
2022-11-02T02:27:40.796Z,100
2022-11-02T02:28:40.779Z,100
2022-11-02T02:29:40.775Z,100
2022-11-02T02:30:40.818Z,100
2022-11-02T02:31:40.767Z,100
2022-11-02T02:32:40.768Z,100
2022-11-02T02:33:40.831Z,100
2022-11-02T02:34:40.774Z,100
2022-11-02T02:35:40.822Z,100
2022-11-02T02:36:40.932Z,100
2022-11-02T02:37:40.831Z,100
2022-11-02T02:38:40.848Z,100
2022-11-02T02:39:40.738Z,100
2022-11-02T02:40:40.824Z,100
2022-11-02T02:41:40.900Z,100
2022-11-02T02:42:40.812Z,100
2022-11-02T02:43:40.789Z,100
2022-11-02T02:44:40.787Z,100
2022-11-02T02:45:40.762Z,100
2022-11-02T02:46:42.770Z,100
2022-11-02T02:47:40.798Z,100
2022-11-02T02:48:40.911Z,100
2022-11-02T02:49:40.835Z,100
2022-11-02T02:50:40.765Z,100
2022-11-02T02:51:40.795Z,100
2022-11-02T02:52:40.776Z,100
2022-11-02T02:53:40.771Z,100
2022-11-02T02:54:40.856Z,100
2022-11-02T02:55:40.836Z,100
2022-11-02T02:56:40.906Z,100
2022-11-02T02:57:40.884Z,100
2022-11-02T02:58:40.765Z,100
2022-11-02T02:59:40.828Z,100
2022-11-02T03:00:40.812Z,100
2022-11-02T03:01:40.940Z,100
2022-11-02T03:02:40.864Z,100
2022-11-02T03:03:40.825Z,100
2022-11-02T03:04:40.832Z,100
2022-11-02T03:05:40.850Z,100
2022-11-02T03:06:40.801Z,100
2022-11-02T03:07:40.761Z,100
2022-11-02T03:08:40.861Z,100
2022-11-02T03:09:40.767Z,100
2022-11-02T03:10:40.866Z,100
2022-11-02T03:11:40.804Z,100
2022-11-02T03:12:40.831Z,100
2022-11-02T03:13:40.886Z,100
2022-11-02T03:14:40.767Z,100
2022-11-02T03:15:40.785Z,100
2022-11-02T03:16:40.781Z,100
2022-11-02T03:17:40.770Z,100
2022-11-02T03:18:40.789Z,100
2022-11-02T03:19:40.743Z,100
2022-11-02T03:20:40.827Z,100
2022-11-02T03:21:40.798Z,100
2022-11-02T03:22:40.765Z,100
2022-11-02T03:23:40.724Z,100
2022-11-02T03:24:40.854Z,100
2022-11-02T03:25:40.762Z,100
2022-11-02T03:26:40.787Z,100
2022-11-02T03:27:40.874Z,100
2022-11-02T03:28:40.876Z,100
2022-11-02T03:29:40.894Z,100
2022-11-02T03:30:40.765Z,100
2022-11-02T03:31:40.779Z,100
2022-11-02T03:32:40.776Z,100
2022-11-02T03:33:40.774Z,100
2022-11-02T03:34:40.807Z,100
2022-11-02T03:35:40.918Z,100
2022-11-02T03:36:40.833Z,100
2022-11-02T03:37:40.833Z,100
2022-11-02T03:38:40.769Z,100
2022-11-02T03:39:40.733Z,100
2022-11-02T03:40:40.855Z,100
2022-11-02T03:41:40.771Z,100
2022-11-02T03:42:40.741Z,100
2022-11-02T03:43:40.865Z,100
2022-11-02T03:44:40.906Z,100
2022-11-02T03:45:40.774Z,100
2022-11-02T03:46:40.775Z,100
2022-11-02T03:47:40.786Z,100
2022-11-02T03:48:40.772Z,100
2022-11-02T03:49:40.905Z,100
2022-11-02T03:50:40.826Z,100
2022-11-02T03:51:40.909Z,100
2022-11-02T03:52:40.849Z,100
2022-11-02T03:53:40.749Z,100
2022-11-02T03:54:40.777Z,100
2022-11-02T03:55:40.741Z,100
2022-11-02T03:56:40.801Z,100
2022-11-02T03:57:40.773Z,100
2022-11-02T03:58:40.883Z,100
2022-11-02T03:59:40.812Z,100
2022-11-02T04:00:40.793Z,100
2022-11-02T04:01:40.974Z,100
2022-11-02T04:02:40.840Z,100
2022-11-02T04:03:40.797Z,100
2022-11-02T04:04:40.804Z,100
2022-11-02T04:05:40.788Z,100
2022-11-02T04:06:40.794Z,100
2022-11-02T04:07:40.921Z,100
2022-11-02T04:08:40.741Z,100
2022-11-02T04:09:40.777Z,100
2022-11-02T04:10:40.852Z,100
2022-11-02T04:11:40.830Z,100
2022-11-02T04:12:40.787Z,100
2022-11-02T04:13:40.856Z,100
2022-11-02T04:14:40.811Z,100
2022-11-02T04:15:40.866Z,100
2022-11-02T04:16:40.785Z,100
2022-11-02T04:17:40.764Z,100
2022-11-02T04:18:40.832Z,100
2022-11-02T04:19:44.129Z,100
2022-11-02T04:20:40.773Z,100
2022-11-02T04:21:40.797Z,100
2022-11-02T04:22:40.849Z,100
2022-11-02T04:23:40.829Z,100
2022-11-02T04:24:40.781Z,100
2022-11-02T04:25:40.772Z,100
2022-11-02T04:26:40.775Z,100
2022-11-02T04:27:40.741Z,100
2022-11-02T04:28:40.778Z,100
2022-11-02T04:29:40.778Z,100
2022-11-02T04:30:40.818Z,100
2022-11-02T04:31:40.875Z,100
2022-11-02T04:32:40.764Z,100
2022-11-02T04:33:40.765Z,100
2022-11-02T04:34:40.765Z,100
2022-11-02T04:35:40.732Z,100
2022-11-02T04:36:40.843Z,100
2022-11-02T04:37:40.784Z,100
2022-11-02T04:38:40.785Z,100
2022-11-02T04:39:40.817Z,100
2022-11-02T04:40:40.771Z,100
2022-11-02T04:41:40.804Z,100
2022-11-02T04:42:40.768Z,100
2022-11-02T04:43:40.789Z,100
2022-11-02T04:44:40.856Z,100
2022-11-02T04:45:40.776Z,100
2022-11-02T04:46:40.856Z,100
2022-11-02T04:47:40.820Z,100
2022-11-02T04:48:40.795Z,100
2022-11-02T04:49:40.812Z,100
2022-11-02T04:50:40.831Z,100
2022-11-02T04:51:44.532Z,100
2022-11-02T04:52:40.812Z,100
2022-11-02T04:53:40.788Z,100
2022-11-02T04:54:40.869Z,100
2022-11-02T04:55:40.775Z,100
2022-11-02T04:56:40.891Z,100
2022-11-02T04:58:40.868Z,100
2022-11-02T04:59:40.767Z,100
2022-11-02T05:00:40.770Z,100
2022-11-02T05:01:41.019Z,100
2022-11-02T05:02:41.029Z,100
2022-11-02T05:03:40.783Z,100
2022-11-02T05:04:40.769Z,100
2022-11-02T05:05:40.787Z,100
2022-11-02T05:06:40.870Z,100
2022-11-02T05:07:40.770Z,100
2022-11-02T05:08:40.797Z,100
2022-11-02T05:09:40.843Z,100
2022-11-02T05:10:40.858Z,100
2022-11-02T05:11:40.772Z,100
2022-11-02T05:12:40.768Z,100
2022-11-02T05:13:40.865Z,100
2022-11-02T05:14:40.763Z,100
2022-11-02T05:15:40.855Z,100
2022-11-02T05:16:40.799Z,100
2022-11-02T05:17:40.863Z,100
2022-11-02T05:18:40.882Z,100
2022-11-02T05:19:40.761Z,100
2022-11-02T05:20:40.770Z,100
2022-11-02T05:21:40.794Z,100
2022-11-02T05:22:40.808Z,100
2022-11-02T05:23:40.766Z,100
2022-11-02T05:24:40.784Z,100
2022-11-02T05:25:40.910Z,100
2022-11-02T05:26:40.869Z,100
2022-11-02T05:27:40.821Z,100
2022-11-02T05:28:40.841Z,100
2022-11-02T05:29:40.840Z,100
2022-11-02T05:30:40.774Z,100
2022-11-02T05:31:40.800Z,100
2022-11-02T05:32:40.780Z,100
2022-11-02T05:33:40.829Z,100
2022-11-02T05:34:40.875Z,100
2022-11-02T05:35:40.781Z,100
2022-11-02T05:36:40.793Z,100
2022-11-02T05:37:40.777Z,100
2022-11-02T05:38:40.824Z,100
2022-11-02T05:39:41.730Z,100
2022-11-02T05:40:40.791Z,100
2022-11-02T05:41:40.836Z,100
2022-11-02T05:42:40.848Z,100
2022-11-02T05:43:40.792Z,100
2022-11-02T05:44:40.822Z,100
2022-11-02T05:45:40.785Z,100
2022-11-02T05:46:40.784Z,100
2022-11-02T05:47:40.730Z,100
2022-11-02T05:48:40.792Z,100
2022-11-02T05:49:40.802Z,100
2022-11-02T05:50:40.773Z,100
2022-11-02T05:51:40.799Z,100
2022-11-02T05:52:40.763Z,100
2022-11-02T05:53:40.817Z,100
2022-11-02T05:54:40.785Z,100
2022-11-02T05:55:40.786Z,100
2022-11-02T05:56:40.795Z,100
2022-11-02T05:57:40.830Z,100
2022-11-02T05:58:40.938Z,100
2022-11-02T05:59:42.733Z,100
2022-11-02T06:00:40.740Z,100
2022-11-02T06:01:40.929Z,100
2022-11-02T06:02:40.764Z,100
2022-11-02T06:03:40.771Z,100
2022-11-02T06:04:40.868Z,100
2022-11-02T06:05:40.857Z,100
2022-11-02T06:06:40.826Z,100
2022-11-02T06:07:40.800Z,100
2022-11-02T06:08:40.799Z,100
2022-11-02T06:09:40.779Z,100
2022-11-02T06:10:40.779Z,100
2022-11-02T06:11:40.776Z,100
2022-11-02T06:12:40.944Z,100
2022-11-02T06:13:40.873Z,100
2022-11-02T06:14:40.775Z,100
2022-11-02T06:15:40.801Z,100
2022-11-02T06:16:40.874Z,100
2022-11-02T06:17:40.867Z,100
2022-11-02T06:18:40.870Z,100
2022-11-02T06:19:40.872Z,100
2022-11-02T06:20:40.883Z,100
2022-11-02T06:21:43.139Z,100
2022-11-02T06:22:40.930Z,100
2022-11-02T06:23:40.870Z,100
2022-11-02T06:24:40.794Z,100
2022-11-02T06:25:40.872Z,100
2022-11-02T06:26:40.931Z,100
2022-11-02T06:27:45.751Z,100
2022-11-02T06:28:41.111Z,100
2022-11-02T06:29:41.078Z,100
2022-11-02T06:30:41.153Z,100
2022-11-02T06:31:41.207Z,100
2022-11-02T06:32:41.088Z,100
2022-11-02T06:33:41.175Z,100
2022-11-02T06:34:40.828Z,100
2022-11-02T06:35:40.841Z,100
2022-11-02T06:36:40.891Z,100
2022-11-02T06:37:40.863Z,100
2022-11-02T06:38:40.785Z,100
2022-11-02T06:39:40.744Z,100
2022-11-02T06:40:40.761Z,100
2022-11-02T06:41:40.808Z,100
2022-11-02T06:42:45.099Z,100
2022-11-02T06:43:40.792Z,100
2022-11-02T06:44:40.834Z,100
2022-11-02T06:45:40.770Z,100
2022-11-02T06:46:40.893Z,100
2022-11-02T06:47:40.773Z,100
2022-11-02T06:48:40.869Z,100
2022-11-02T06:49:40.764Z,100
2022-11-02T06:50:40.793Z,100
2022-11-02T06:51:40.809Z,100
2022-11-02T06:52:40.905Z,100
2022-11-02T06:53:40.759Z,100
2022-11-02T06:54:40.769Z,100
2022-11-02T06:55:40.726Z,100
2022-11-02T06:56:40.794Z,100
2022-11-02T06:57:40.857Z,100
2022-11-02T06:58:40.830Z,100
2022-11-02T06:59:40.834Z,100
2022-11-02T07:00:40.863Z,100
2022-11-02T07:01:40.999Z,100
2022-11-02T07:02:40.848Z,100
2022-11-02T07:03:40.721Z,100
2022-11-02T07:04:40.758Z,100
2022-11-02T07:05:40.759Z,100
2022-11-02T07:06:40.813Z,100
2022-11-02T07:07:40.814Z,100
2022-11-02T07:08:40.820Z,100
2022-11-02T07:09:40.780Z,100
2022-11-02T07:10:40.761Z,100
2022-11-02T07:11:40.789Z,100
2022-11-02T07:12:40.750Z,100
2022-11-02T07:13:40.761Z,100
2022-11-02T07:14:40.779Z,100
2022-11-02T07:15:40.789Z,100
2022-11-02T07:16:40.863Z,100
2022-11-02T07:17:40.768Z,100
2022-11-02T07:18:40.763Z,100
2022-11-02T07:19:40.737Z,100
2022-11-02T07:20:40.758Z,100
2022-11-02T07:21:42.475Z,100
2022-11-02T07:22:40.769Z,100
2022-11-02T07:23:40.812Z,100
2022-11-02T07:24:40.863Z,100
2022-11-02T07:25:40.788Z,100
2022-11-02T07:26:40.842Z,100
2022-11-02T07:27:40.761Z,100
2022-11-02T07:28:40.770Z,100
2022-11-02T07:29:40.810Z,100
2022-11-02T07:30:40.769Z,100
2022-11-02T07:31:40.840Z,100
2022-11-02T07:32:40.864Z,100
2022-11-02T07:33:40.771Z,100
2022-11-02T07:34:40.759Z,100
2022-11-02T07:35:40.766Z,100
2022-11-02T07:36:40.803Z,100
2022-11-02T07:37:40.829Z,100
2022-11-02T07:38:40.763Z,100
2022-11-02T07:39:40.817Z,100
2022-11-02T07:40:40.869Z,100
2022-11-02T07:41:40.787Z,100
2022-11-02T07:42:40.775Z,100
2022-11-02T07:43:43.163Z,100
2022-11-02T07:44:40.770Z,100
2022-11-02T07:45:40.762Z,100
2022-11-02T07:46:40.788Z,100
2022-11-02T07:47:40.776Z,100
2022-11-02T07:48:40.767Z,100
2022-11-02T07:49:40.765Z,100
2022-11-02T07:50:40.762Z,100
2022-11-02T07:51:40.808Z,100
2022-11-02T07:52:40.803Z,100
2022-11-02T07:53:40.798Z,100
2022-11-02T07:54:44.581Z,100
2022-11-02T07:55:40.783Z,100
2022-11-02T07:56:40.800Z,100
2022-11-02T07:57:40.779Z,100
2022-11-02T07:58:40.764Z,100
2022-11-02T07:59:40.888Z,100
2022-11-02T08:00:40.763Z,100
2022-11-02T08:01:40.938Z,100
2022-11-02T08:02:40.896Z,100
2022-11-02T08:03:40.811Z,100
2022-11-02T08:04:43.989Z,100
2022-11-02T08:05:40.754Z,100
2022-11-02T08:06:40.895Z,100
2022-11-02T08:07:40.761Z,100
2022-11-02T08:08:40.782Z,100
2022-11-02T08:09:40.756Z,100
2022-11-02T08:10:40.850Z,100
2022-11-02T08:11:40.879Z,100
2022-11-02T08:12:40.797Z,100
2022-11-02T08:13:40.812Z,100
2022-11-02T08:14:40.755Z,100
2022-11-02T08:15:40.834Z,100
2022-11-02T08:16:40.781Z,100
2022-11-02T08:17:40.834Z,100
2022-11-02T08:18:40.852Z,100
2022-11-02T08:19:40.816Z,100
2022-11-02T08:20:40.873Z,100
2022-11-02T08:21:40.908Z,100
2022-11-02T08:22:40.766Z,100
2022-11-02T08:23:40.803Z,100
2022-11-02T08:24:40.819Z,100
2022-11-02T08:25:40.761Z,100
2022-11-02T08:26:43.918Z,100
2022-11-02T08:27:40.907Z,100
2022-11-02T08:28:40.821Z,100
2022-11-02T08:29:40.889Z,100
2022-11-02T08:30:40.765Z,100
2022-11-02T08:31:40.779Z,100
2022-11-02T08:32:40.951Z,100
2022-11-02T08:33:40.869Z,100
2022-11-02T08:34:40.818Z,100
2022-11-02T08:35:40.863Z,100
2022-11-02T08:36:40.892Z,100
2022-11-02T08:37:40.776Z,100
2022-11-02T08:38:40.767Z,100
2022-11-02T08:39:40.890Z,100
2022-11-02T08:40:40.764Z,100
2022-11-02T08:41:40.793Z,100
2022-11-02T08:42:40.908Z,100
2022-11-02T08:43:40.919Z,99.2
2022-11-02T08:44:42.692Z,98.5
2022-11-02T08:46:40.889Z,95.9
2022-11-02T08:47:40.779Z,95.9
2022-11-02T08:48:40.767Z,95.2
2022-11-02T08:49:40.752Z,95.5
2022-11-02T08:50:40.849Z,96
2022-11-02T08:51:40.748Z,96.8
2022-11-02T08:52:41.019Z,97.5
2022-11-02T08:53:40.778Z,97.1
2022-11-02T08:54:40.817Z,96.2
2022-11-02T08:55:40.776Z,95.9
2022-11-02T08:56:40.765Z,96
2022-11-02T08:57:40.894Z,94.7
2022-11-02T08:58:40.912Z,93.6
2022-11-02T08:59:40.815Z,93.3
2022-11-02T09:00:40.840Z,91.4
2022-11-02T09:01:40.850Z,91.3
2022-11-02T09:02:40.910Z,90.4
2022-11-02T09:03:40.754Z,91.4
2022-11-02T09:04:40.782Z,92
2022-11-02T09:05:40.862Z,92.3
2022-11-02T09:06:40.843Z,91.3
2022-11-02T09:07:40.866Z,90.4
2022-11-02T09:08:40.760Z,88.1
2022-11-02T09:09:40.879Z,87.3
2022-11-02T09:10:40.766Z,87.7
2022-11-02T09:11:40.800Z,86.3
2022-11-02T09:12:40.722Z,87.2
2022-11-02T09:13:40.889Z,86.1
2022-11-02T09:14:40.907Z,85.6
2022-11-02T09:15:40.728Z,85.6
2022-11-02T09:16:41.810Z,85.5
2022-11-02T09:17:40.825Z,85.9
2022-11-02T09:18:40.782Z,87.8
2022-11-02T09:19:40.813Z,87.3
2022-11-02T09:20:40.739Z,86.3
2022-11-02T09:21:40.881Z,86.5
2022-11-02T09:22:40.842Z,86.7
2022-11-02T09:23:40.865Z,86.5
2022-11-02T09:24:40.878Z,84.8
2022-11-02T09:25:40.791Z,84.7
2022-11-02T09:26:40.790Z,85.3
2022-11-02T09:27:40.881Z,85.8
2022-11-02T09:28:40.801Z,86.1
2022-11-02T09:29:40.913Z,85.8
2022-11-02T09:30:40.856Z,85.4
2022-11-02T09:31:40.826Z,85.8
2022-11-02T09:32:40.757Z,84.4
2022-11-02T09:33:40.864Z,83.7
2022-11-02T09:34:40.905Z,82.2
2022-11-02T09:35:41.022Z,83.2
2022-11-02T09:36:41.059Z,84
2022-11-02T09:37:40.889Z,84.1
2022-11-02T09:38:40.971Z,83.5
2022-11-02T09:39:41.085Z,82.6
2022-11-02T09:40:41.148Z,83.6
2022-11-02T09:41:41.172Z,84.7
2022-11-02T09:42:40.936Z,82.9
2022-11-02T09:43:40.734Z,82
2022-11-02T09:44:40.768Z,82.6
2022-11-02T09:45:40.806Z,81.4
2022-11-02T09:46:40.833Z,81.9
2022-11-02T09:48:14.833Z,79.6
2022-11-02T09:48:40.822Z,80.3
2022-11-02T09:49:40.757Z,80.1
2022-11-02T09:50:40.772Z,78.3
2022-11-02T09:51:40.800Z,78.4
2022-11-02T09:52:40.861Z,78.5
2022-11-02T09:53:40.856Z,79.4
2022-11-02T09:54:40.882Z,78.2
2022-11-02T09:55:40.833Z,79.2
2022-11-02T09:56:40.817Z,77.7
2022-11-02T09:57:40.792Z,76.4
2022-11-02T09:58:40.778Z,75.9
2022-11-02T09:59:40.797Z,76.7
2022-11-02T10:00:40.818Z,77
2022-11-02T10:01:40.995Z,78.1
2022-11-02T10:02:40.845Z,78.2
2022-11-02T10:03:40.726Z,78.6
2022-11-02T10:04:40.839Z,79.5
2022-11-02T10:05:40.839Z,78
2022-11-02T10:06:40.838Z,77.4
2022-11-02T10:07:40.817Z,75.9
2022-11-02T10:08:40.817Z,76.2
2022-11-02T10:09:40.870Z,77.5
2022-11-02T10:10:40.769Z,77.2
2022-11-02T10:11:40.747Z,74.2
2022-11-02T10:12:40.788Z,74.3
2022-11-02T10:13:40.767Z,71.7
2022-11-02T10:14:40.902Z,72.2
2022-11-02T10:15:40.771Z,71.3
2022-11-02T10:16:40.829Z,70.7
2022-11-02T10:17:40.924Z,71
2022-11-02T10:18:40.760Z,70.7
2022-11-02T10:19:40.800Z,71.1
2022-11-02T10:20:40.835Z,69.5
2022-11-02T10:21:40.863Z,69
2022-11-02T10:22:40.845Z,69.8
2022-11-02T10:23:40.777Z,70.3
2022-11-02T10:24:40.825Z,71.3
2022-11-02T10:25:40.872Z,70.5
2022-11-02T10:26:40.773Z,70
2022-11-02T10:27:40.859Z,69.4
2022-11-02T10:28:40.896Z,67
2022-11-02T10:29:40.793Z,68.1
2022-11-02T10:30:40.801Z,68.1
2022-11-02T10:31:40.818Z,68
2022-11-02T10:32:40.807Z,66.7
2022-11-02T10:33:40.760Z,66.6
2022-11-02T10:34:40.832Z,67.6
2022-11-02T10:36:04.295Z,68.4
2022-11-02T10:36:40.978Z,67.7
2022-11-02T10:37:40.773Z,68.6
2022-11-02T10:38:40.769Z,69.3
2022-11-02T10:39:40.826Z,69.7
2022-11-02T10:40:40.817Z,69.6
2022-11-02T10:41:40.788Z,70.8
2022-11-02T10:42:40.778Z,70.2
2022-11-02T10:43:40.788Z,69.2
2022-11-02T10:44:40.768Z,69.4
2022-11-02T10:45:40.816Z,70.4
2022-11-02T10:46:40.813Z,70
2022-11-02T10:47:40.896Z,70.1
2022-11-02T10:48:40.890Z,67.1
2022-11-02T10:49:40.831Z,64.9
2022-11-02T10:50:40.844Z,61.9
2022-11-02T10:51:40.854Z,61.7
2022-11-02T10:52:40.777Z,61.6
2022-11-02T10:53:42.213Z,62.3
2022-11-02T10:54:40.862Z,61
2022-11-02T10:55:40.872Z,61.4
2022-11-02T10:56:40.888Z,61.6
2022-11-02T10:57:40.791Z,61.5
2022-11-02T10:58:40.815Z,60.5
2022-11-02T10:59:40.876Z,60.7
2022-11-02T11:00:40.841Z,60
2022-11-02T11:01:40.951Z,59.4
2022-11-02T11:02:40.740Z,59.5
2022-11-02T11:03:40.818Z,59.8
2022-11-02T11:04:40.847Z,60.1
2022-11-02T11:05:40.793Z,59.8
2022-11-02T11:06:40.849Z,61.1
2022-11-02T11:07:40.843Z,61
2022-11-02T11:08:40.825Z,62.1
2022-11-02T11:09:45.737Z,61.7
2022-11-02T11:10:40.823Z,61.4
2022-11-02T11:11:40.884Z,61.1
2022-11-02T11:12:40.859Z,60.9
2022-11-02T11:15:48.122Z,58.1
2022-11-02T11:16:40.779Z,57
2022-11-02T11:19:41.403Z,56.9
2022-11-02T11:20:40.768Z,58.2
2022-11-02T11:21:40.772Z,56
2022-11-02T11:22:40.838Z,55.8
2022-11-02T11:23:40.785Z,54.4
2022-11-02T11:24:40.895Z,53.5
2022-11-02T11:25:40.758Z,54
2022-11-02T11:26:40.839Z,54.6
2022-11-02T11:27:40.813Z,54.8
2022-11-02T11:28:40.785Z,55.4
2022-11-02T11:29:40.784Z,56.4
2022-11-02T11:30:59.996Z,58
2022-11-02T11:31:40.740Z,58.2
2022-11-02T11:32:40.780Z,59.3
2022-11-02T11:33:40.819Z,59.1
2022-11-02T11:34:40.927Z,58.2
2022-11-02T11:35:40.804Z,59.6
2022-11-02T11:36:40.813Z,59.4
2022-11-02T11:37:40.786Z,59.9
2022-11-02T11:38:40.746Z,58.4
2022-11-02T11:39:40.832Z,57.9
2022-11-02T11:40:40.830Z,58
2022-11-02T11:41:40.752Z,56.5
2022-11-02T11:42:40.771Z,55.4
2022-11-02T11:43:40.850Z,54.5
2022-11-02T11:44:40.728Z,53.9
2022-11-02T11:45:40.729Z,54.1
2022-11-02T11:46:40.759Z,54.4
2022-11-02T11:47:40.780Z,54.1
2022-11-02T11:48:40.885Z,54.2
2022-11-02T11:50:07.271Z,52
2022-11-02T11:50:40.895Z,49.9
2022-11-02T11:51:40.840Z,49
2022-11-02T11:52:40.806Z,50.6
2022-11-02T11:53:40.820Z,52
2022-11-02T11:54:40.735Z,53.2
2022-11-02T11:55:40.832Z,51.4
2022-11-02T11:56:40.744Z,51.3
2022-11-02T11:57:40.741Z,50.7
2022-11-02T11:58:40.803Z,49.8
2022-11-02T11:59:40.851Z,48.5
2022-11-02T12:00:40.758Z,48.6
2022-11-02T12:01:40.938Z,48.2
2022-11-02T12:02:44.452Z,46.6
2022-11-02T12:03:40.775Z,46.1
2022-11-02T12:04:40.732Z,45.7
2022-11-02T12:05:40.786Z,45.6
2022-11-02T12:06:40.904Z,45.6
2022-11-02T12:07:40.798Z,45
2022-11-02T12:08:40.810Z,46
2022-11-02T12:09:40.815Z,46.2
2022-11-02T12:10:40.829Z,46.4
2022-11-02T12:11:40.890Z,47.7
2022-11-02T12:12:40.850Z,47.6
2022-11-02T12:13:40.794Z,47.9
2022-11-02T12:14:40.779Z,47.3
2022-11-02T12:15:40.733Z,46.7
2022-11-02T12:16:40.765Z,45.6
2022-11-02T12:17:40.777Z,45.5
2022-11-02T12:18:40.731Z,46.8
2022-11-02T12:19:40.739Z,47.1
2022-11-02T12:20:40.784Z,47.7
2022-11-02T12:21:40.776Z,48.7
2022-11-02T12:22:40.798Z,48.3
2022-11-02T12:23:40.741Z,46.2
2022-11-02T12:24:40.810Z,44.7
2022-11-02T12:25:40.759Z,43.5
2022-11-02T12:26:40.737Z,42.3
2022-11-02T12:27:40.749Z,42.4
2022-11-02T12:28:40.743Z,41.3
2022-11-02T12:29:40.793Z,41.3
2022-11-02T12:30:40.831Z,42.1
2022-11-02T12:31:40.765Z,42.9
2022-11-02T12:32:40.744Z,42.1
2022-11-02T12:33:40.750Z,42.5
2022-11-02T12:34:40.741Z,41
2022-11-02T12:37:03.437Z,40.1
2022-11-02T12:37:41.783Z,38.9
2022-11-02T12:38:40.851Z,40.1
2022-11-02T12:39:40.746Z,40.6
2022-11-02T12:40:40.743Z,41.9
2022-11-02T12:41:40.771Z,43.6
2022-11-02T12:42:43.214Z,43.6
2022-11-02T12:43:40.847Z,43
2022-11-02T12:44:40.747Z,42.9
2022-11-02T12:45:40.785Z,42.3
2022-11-02T12:46:45.961Z,41.6
2022-11-02T12:47:40.772Z,41.1
2022-11-02T12:48:40.770Z,40.8
2022-11-02T12:49:40.738Z,41
2022-11-02T12:50:40.773Z,41.3
2022-11-02T12:51:40.819Z,41
2022-11-02T12:52:40.804Z,40
2022-11-02T12:53:40.788Z,39.2
2022-11-02T12:54:41.833Z,38.5
2022-11-02T12:55:40.805Z,38.4
2022-11-02T12:56:40.829Z,38.6
2022-11-02T12:57:40.782Z,38.1
2022-11-02T12:58:40.738Z,38.9
2022-11-02T12:59:40.828Z,39.3
2022-11-02T13:00:40.901Z,38.9
2022-11-02T13:01:41.144Z,39
2022-11-02T13:02:40.773Z,38.4
2022-11-02T13:03:40.785Z,37.9
2022-11-02T13:04:40.737Z,37.3
2022-11-02T13:05:40.769Z,37
2022-11-02T13:06:40.762Z,36.8
2022-11-02T13:07:40.748Z,36
2022-11-02T13:08:40.892Z,36.3
2022-11-02T13:09:40.909Z,36.3
2022-11-02T13:10:40.806Z,36.7
2022-11-02T13:11:40.752Z,36.4
2022-11-02T13:12:40.750Z,35.9
2022-11-02T13:13:40.842Z,35.1
2022-11-02T13:14:40.847Z,36
2022-11-02T13:15:40.805Z,37.6
2022-11-02T13:16:40.875Z,38.2
2022-11-02T13:17:40.946Z,38.8
2022-11-02T13:18:40.866Z,39.4
2022-11-02T13:19:40.858Z,39.3
2022-11-02T13:20:40.929Z,39.2
2022-11-02T13:21:44.142Z,38.6
2022-11-02T13:22:40.803Z,38.9
2022-11-02T13:23:40.791Z,39.1
2022-11-02T13:24:40.812Z,39.6
2022-11-02T13:25:40.851Z,39.5
2022-11-02T13:26:40.866Z,39.3
2022-11-02T13:27:40.751Z,39.4
2022-11-02T13:28:40.811Z,39.2
2022-11-02T13:29:40.826Z,39
2022-11-02T13:30:40.744Z,38.8
2022-11-02T13:31:40.792Z,37.5
2022-11-02T13:32:40.802Z,36.8
2022-11-02T13:33:40.766Z,36.4
2022-11-02T13:34:40.749Z,36.7
2022-11-02T13:35:40.747Z,38.2
2022-11-02T13:36:40.767Z,39.8
2022-11-02T13:37:40.758Z,40.2
2022-11-02T13:38:40.741Z,40.1
2022-11-02T13:39:40.794Z,40.6
2022-11-02T13:40:40.802Z,40.4
2022-11-02T13:41:40.736Z,40.3
2022-11-02T13:42:40.795Z,39.8
2022-11-02T13:43:40.739Z,39.3
2022-11-02T13:44:40.741Z,38.7
2022-11-02T13:45:40.739Z,37.4